Flight Track Log - Related Links

Times and Time Zones

All times are in EDT time to prevent confusion due to time zone crossing. See the N804JJ flight status page for this flight to view local times or setup timezone preferences in your user account.


Time Position Orientation Groundspeed Altitude Reporting Facility
EDT Latitude Longitude Course Direction KTS MPH feet Rate Location/Type
Tue 01:44:57 PM 28.9953 -99.5956 58° Northeast 345 397 17,500  Level Houston Center
Tue 01:45:59 PM 29.0561 -99.5003 54° Northeast 367 422 19,900 2,323 Climbing Houston Center
Tue 01:47:01 PM 29.1281 -99.3906 53° Northeast 361 415 22,300 1,935 Climbing Houston Center
Tue 01:48:03 PM 29.1831 -99.2844 59° Northeast 377 434 23,900 1,548 Climbing Houston Center
Tue 01:49:00 PM 29.0683 -99.3577 60° Northeast  Level Estimated
Tue 01:49:05 PM 29.2411 -99.1714 60° Northeast 383 441 25,500  Level Houston Center
Tue 01:50:07 PM 29.3036 -99.0697 55° Northeast 391 450 27,000 1,306 Climbing Houston Center
Tue 01:51:09 PM 29.3642 -98.9525 59° Northeast 397 457 28,200 1,210 Climbing Houston Center
Tue 01:52:11 PM 29.4400 -98.8506 49° Northeast 411 473 29,500 1,452 Climbing Houston Center
Tue 01:53:13 PM 29.5075 -98.7342 56° Northeast 411 473 31,200 1,355 Climbing Houston Center
Tue 01:54:15 PM 29.5611 -98.6178 62° Northeast 412 474 32,300 1,161 Climbing Houston Center
Tue 01:55:17 PM 29.6178 -98.4975 62° Northeast 427 491 33,600 1,065 Climbing Houston Center
Tue 01:56:19 PM 29.6817 -98.3794 58° Northeast 425 489 34,500 677 Climbing Houston Center
Tue 01:57:21 PM 29.7375 -98.2481 64° Northeast 424 488 35,000 242 Climbing Houston Center
Tue 01:58:23 PM 29.7903 -98.1206 64° Northeast 438 504 35,000  Level Houston Center
Tue 01:59:25 PM 29.8492 -97.9819 64° Northeast 446 513 35,000  Level Houston Center
Tue 02:00:27 PM 29.9053 -97.8522 63° Northeast 451 519 35,000  Level Houston Center
Tue 02:01:29 PM 29.9586 -97.7083 67° East 454 522 35,000  Level Houston Center
Tue 02:02:31 PM 30.0103 -97.5747 66° East 458 527 35,000 48 Level Houston Center
Tue 02:03:34 PM 30.0617 -97.4442 66° East 464 534 35,100  Climbing Houston Center
Tue 02:04:36 PM 30.1133 -97.3181 65° Northeast 460 529 35,000 -48 Descending Houston Center
Tue 02:05:38 PM 30.1794 -97.1628 64° Northeast 458 527 35,000  Level Houston Center
Tue 02:06:40 PM 30.2364 -97.0297 64° Northeast 461 531 35,000  Level Houston Center
Tue 02:07:42 PM 30.2872 -96.8944 66° East 458 527 35,000  Level Houston Center
Tue 02:08:44 PM 30.3336 -96.7550 69° East 460 529 35,000  Level Houston Center
Tue 02:09:46 PM 30.3919 -96.6242 63° Northeast 459 528 35,000  Level Houston Center
Tue 02:10:48 PM 30.4444 -96.4875 66° East 461 531 35,000  Level Houston Center
Tue 02:11:50 PM 30.5086 -96.3311 65° Northeast 458 527 35,000  Level Houston Center
Tue 02:12:52 PM 30.5608 -96.1947 66° East 460 529 35,000  Level Houston Center
Tue 02:13:54 PM 30.6136 -96.0583 66° East 460 529 35,000  Level Houston Center
Tue 02:14:56 PM 30.6703 -95.9139 65° Northeast 463 533 35,000  Level Houston Center
Tue 02:15:58 PM 30.7250 -95.7711 66° East 466 536 35,000  Level Houston Center
Tue 02:17:00 PM 30.7781 -95.6344 66° East 466 536 35,000  Level Houston Center
Tue 02:18:02 PM 30.8311 -95.4961 66° East 467 537 35,000  Level Houston Center
Tue 02:19:04 PM 30.8833 -95.3578 66° East 468 539 35,000  Level Houston Center
Tue 02:20:06 PM 30.9381 -95.2181 65° Northeast 474 545 35,000  Level Houston Center
Tue 02:21:08 PM 31.0000 -95.0506 67° East 471 542 35,000  Level Houston Center
Tue 02:22:12 PM 31.0536 -94.9103 66° East 473 544 35,000  Level Houston Center
Tue 02:23:12 PM 31.1044 -94.7706 67° East 475 547 35,000  Level Houston Center
Tue 02:24:14 PM 31.1581 -94.6294 66° East 489 563 35,000  Level Houston Center
Tue 02:25:29 PM 31.2333 -94.4336 66° East 484 557 35,000  Level Houston Center
Tue 02:26:31 PM 31.2858 -94.2928 66° East 478 550 35,000  Level Houston Center
Tue 02:27:33 PM 31.3392 -94.1500 66° East 479 551 35,000  Level Houston Center
Tue 02:28:35 PM 31.3922 -94.0075 66° East 479 551 35,000  Level Houston Center
Tue 02:29:38 PM 31.4436 -93.8656 67° East 477 549 35,000  Level Houston Center
Tue 02:30:40 PM 31.5053 -93.6950 67° East 475 547 35,000  Level Houston Center
Tue 02:31:42 PM 31.5586 -93.5511 66° East 473 544 35,000  Level Houston Center
Tue 02:32:44 PM 31.6089 -93.4103 67° East 469 540 35,000  Level Houston Center
Tue 02:33:21 PM 31.6406 -93.3261 66° East 469 540 35,000  Level Houston Center
Tue 02:34:23 PM 31.6922 -93.1847 67° East 468 539 35,000  Level Houston Center
Tue 02:35:26 PM 31.7414 -93.0450 67° East 464 534 35,000  Level Houston Center
Tue 02:36:28 PM 31.7911 -92.9061 67° East 463 533 35,000  Level Houston Center
Tue 02:37:30 PM 31.8414 -92.7661 67° East 464 534 35,000  Level Houston Center
Tue 02:38:32 PM 31.9011 -92.5986 67° East 463 533 35,000  Level Houston Center
Tue 02:39:34 PM 31.9489 -92.4572 68° East 465 535 35,000  Level Houston Center
Tue 02:40:36 PM 31.9992 -92.3175 67° East 464 534 35,000  Level Houston Center
Tue 02:41:39 PM 32.0494 -92.1769 67° East 466 536 35,000  Level Houston Center
Tue 02:42:41 PM 32.0983 -92.0317 68° East 465 535 35,000  Level Houston Center
Tue 02:43:43 PM 32.1464 -91.8886 68° East 467 537 35,000  Level Houston Center
Tue 02:44:45 PM 32.2047 -91.7181 68° East 467 537 35,000  Level Houston Center
Tue 02:45:47 PM 32.2536 -91.5747 68° East 471 542 35,000  Level Houston Center
Tue 02:46:49 PM 32.3036 -91.4336 67° East 468 539 35,000  Level Houston Center
Tue 02:47:52 PM 32.3511 -91.2903 69° East 467 537 35,000  Level Houston Center
Tue 02:48:20 PM 32.3789 -91.2083 68° East 461 531 35,000  Level Memphis Center
Tue 02:49:20 PM 32.4278 -91.0636 68° East 461 531 35,000  Level Memphis Center
Tue 02:50:20 PM 32.4786 -90.9211 67° East 468 539 35,000  Level Memphis Center
Tue 02:51:20 PM 32.5250 -90.7761 69° East 468 539 35,000  Level Memphis Center
Tue 02:52:20 PM 32.5714 -90.6358 69° East 468 539 35,000  Level Memphis Center
Tue 02:53:20 PM 32.6197 -90.4881 69° East 468 539 35,000  Level Memphis Center
Tue 02:54:20 PM 32.6656 -90.3500 68° East 462 532 35,000  Level Memphis Center
Tue 02:55:20 PM 32.7114 -90.2092 69° East 457 526 35,000 50 Level Memphis Center
Tue 02:56:20 PM 32.7572 -90.0708 68° East 451 519 35,100  Climbing Memphis Center
Tue 02:57:20 PM 32.8006 -89.9322 70° East 451 519 35,000 -50 Descending Memphis Center
Tue 02:58:20 PM 32.8419 -89.8058 69° East 451 519 35,000  Level Memphis Center
Tue 02:59:21 PM 32.8869 -89.6647 69° East 451 519 35,000  Level Memphis Center
Tue 03:00:20 PM 32.9322 -89.5306 68° East 445 512 35,000  Level Memphis Center
Tue 03:01:20 PM 32.9750 -89.3964 69° East 433 498 35,000  Level Memphis Center
Tue 03:02:20 PM 33.0200 -89.2647 68° East 433 498 35,000  Level Memphis Center
Tue 03:03:20 PM 33.0625 -89.1278 70° East 433 498 35,000  Level Memphis Center
Tue 03:04:20 PM 33.1047 -88.9908 70° East 433 498 35,000 50 Level Memphis Center
Tue 03:05:20 PM 33.1450 -88.8561 70° East 433 498 35,100  Climbing Memphis Center
Tue 03:06:20 PM 33.1933 -88.7064 69° East 433 498 35,000 -50 Descending Memphis Center
Tue 03:07:20 PM 33.2372 -88.5739 68° East 433 498 35,000  Level Memphis Center
Tue 03:08:20 PM 33.2769 -88.4389 71° East 433 498 35,000  Level Memphis Center
Tue 03:09:20 PM 33.3228 -88.3011 68° East 433 498 35,000  Level Memphis Center
Tue 03:11:08 PM 33.3881 -88.0667 71° East 437 503 35,000  Level Atlanta Center
Tue 03:12:08 PM 33.4300 -87.9317 70° East 437 503 35,000  Level Atlanta Center
Tue 03:13:08 PM 33.4739 -87.7942 69° East 437 503 35,000  Level Atlanta Center
Tue 03:14:08 PM 33.5136 -87.6564 71° East 437 503 35,000  Level Atlanta Center
Tue 03:15:08 PM 33.5550 -87.5211 70° East 437 503 35,000 -300 Level Atlanta Center
Tue 03:16:08 PM 33.5964 -87.3831 70° East 437 503 34,400 -800 Descending Atlanta Center
Tue 03:17:08 PM 33.6378 -87.2425 70° East 437 503 33,400 -1,150 Descending Atlanta Center
Tue 03:18:08 PM 33.6789 -87.1017 71° East 437 503 32,100 -950 Descending Atlanta Center
Tue 03:19:08 PM 33.7200 -86.9608 71° East 437 503 31,500 -1,000 Descending Atlanta Center
Tue 03:20:08 PM 33.7628 -86.8200 70° East 437 503 30,100 -1,600 Descending Atlanta Center
Tue 03:21:08 PM 33.8036 -86.6786 71° East 442 509 28,300 -1,650 Descending Atlanta Center
Tue 03:22:08 PM 33.8419 -86.5347 72° East 442 509 26,800 -2,100 Descending Atlanta Center
Tue 03:23:08 PM 33.8844 -86.3936 70° East 442 509 24,100 -2,650 Descending Atlanta Center
Tue 03:24:08 PM 33.9267 -86.2594 69° East 437 503 21,500 -2,600 Descending Atlanta Center
Tue 03:25:08 PM 33.9644 -86.1253 71° East 427 491 18,900 -2,300 Descending Atlanta Center
Tue 03:26:08 PM 33.9811 -86.0003 81° East 399 459 16,900 -2,400 Descending Atlanta Center
Tue 03:27:08 PM 33.9728 -85.8697 94° East 386 444 14,100 -1,900 Descending Atlanta Center
Tue 03:28:08 PM 33.9681 -85.7469 93° East 363 418 13,100 -700 Descending Atlanta Center
Tue 03:29:08 PM 33.9697 -85.6319 89° East 342 394 12,700 -800 Descending Atlanta Center
Tue 03:30:08 PM 33.9628 -85.5167 94° East 342 394 11,500 -1,300 Descending Atlanta Center
Tue 03:31:08 PM 33.9578 -85.4086 93° East 336 387 10,100 -1,250 Descending Atlanta Center
Tue 03:32:08 PM 33.9653 -85.3061 85° East 309 356 9,000 -850 Descending Atlanta Center
Tue 03:33:08 PM 33.9661 -85.2136 89° East 288 331 8,400 -500 Descending Atlanta Center
Tue 03:34:08 PM 33.9481 -85.1156 102° East 293 337 8,000 -400 Descending Atlanta Center
Tue 03:35:08 PM 33.9386 -85.0203 97° East 293 337 7,600 -650 Descending Atlanta Center
Tue 03:36:08 PM 33.9517 -84.9328 80° East 293 337 6,700 -1,250 Descending Atlanta Center
Tue 03:37:08 PM 33.9775 -84.8331 73° East 298 343 5,100 -1,300 Descending Atlanta Center
Tue 03:38:08 PM 34.0050 -84.7431 70° East 293 337 4,100 -950 Descending Atlanta Center
Tue 03:39:08 PM 34.0328 -84.6606 68° East 270 311 3,200 -800 Descending Atlanta Center
Tue 03:40:08 PM 34.0478 -84.5753 78° East 247 284 2,500 -700 Descending Atlanta Center
Tue 03:43:00 PM 34.0132 -84.5971 203° Southwest  Level Estimated

Login

Don't have an account? Register now (free) for customized features, flight alerts, and more!